createdAt,value
2023-07-26T00:01:36.009Z,0.60
2023-07-26T00:04:37.488Z,0.70
2023-07-26T00:07:38.995Z,0.45
2023-07-26T00:10:40.460Z,0.50
2023-07-26T00:13:41.953Z,0.80
2023-07-26T00:16:43.434Z,0.60
2023-07-26T00:19:44.926Z,0.40
2023-07-26T00:22:46.397Z,0.60
2023-07-26T00:25:47.873Z,0.70
2023-07-26T00:28:49.338Z,0.52
2023-07-26T00:31:50.781Z,0.43
2023-07-26T00:34:52.253Z,0.50
2023-07-26T00:37:53.726Z,0.50
2023-07-26T00:40:55.236Z,0.60
2023-07-26T00:43:56.735Z,0.60
2023-07-26T00:46:58.218Z,0.55
2023-07-26T00:49:59.739Z,0.70
2023-07-26T00:53:01.224Z,0.43
2023-07-26T00:56:02.698Z,0.57
2023-07-26T00:59:07.017Z,0.40
2023-07-26T01:02:09.006Z,0.57
2023-07-26T01:05:10.511Z,0.50
2023-07-26T01:08:12.011Z,0.60
2023-07-26T01:11:13.630Z,0.60
2023-07-26T01:14:15.097Z,0.40
2023-07-26T01:17:16.630Z,0.50
2023-07-26T01:20:18.091Z,0.60
2023-07-26T01:23:19.590Z,0.47
2023-07-26T01:26:21.092Z,0.50
2023-07-26T01:29:22.551Z,0.60
2023-07-26T01:32:24.033Z,0.40
2023-07-26T01:35:25.520Z,0.63
2023-07-26T01:38:26.990Z,0.40
2023-07-26T01:41:28.532Z,0.50
2023-07-26T01:44:30.003Z,0.50
2023-07-26T01:47:31.531Z,0.40
2023-07-26T01:50:33.001Z,0.50
2023-07-26T01:53:34.548Z,0.30
2023-07-26T01:56:36.022Z,0.45
2023-07-26T01:59:37.449Z,0.60
2023-07-26T02:02:38.973Z,0.40
2023-07-26T02:05:40.478Z,0.40
2023-07-26T02:08:41.940Z,0.40
2023-07-26T02:11:43.410Z,0.50
2023-07-26T02:14:44.875Z,0.50
2023-07-26T02:17:46.378Z,0.40
2023-07-26T02:20:47.901Z,0.40
2023-07-26T02:23:52.980Z,0.40
2023-07-26T02:26:54.406Z,0.30
2023-07-26T02:29:55.900Z,0.52
2023-07-26T02:32:57.563Z,0.50
2023-07-26T02:35:59.011Z,0.50
2023-07-26T02:39:00.492Z,0.30
2023-07-26T02:42:01.968Z,0.50
2023-07-26T02:45:03.506Z,0.57
2023-07-26T02:48:05.135Z,0.40
2023-07-26T02:51:06.720Z,0.50
2023-07-26T02:54:08.236Z,0.47
2023-07-26T02:57:09.697Z,0.50
2023-07-26T03:00:11.158Z,0.50
2023-07-26T03:03:12.722Z,0.32
2023-07-26T03:06:14.316Z,0.40
2023-07-26T03:09:15.840Z,0.75
2023-07-26T03:12:17.273Z,0.60
2023-07-26T03:15:18.798Z,0.40
2023-07-26T03:18:20.238Z,0.52
2023-07-26T03:21:21.679Z,0.50
2023-07-26T03:24:23.296Z,0.30
2023-07-26T03:27:25.021Z,0.50
2023-07-26T03:30:26.541Z,0.50
2023-07-26T03:33:28.010Z,0.40
2023-07-26T03:36:29.554Z,0.40
2023-07-26T03:39:31.199Z,0.57
2023-07-26T03:42:32.686Z,0.40
2023-07-26T03:45:34.229Z,0.50
2023-07-26T03:48:35.761Z,0.52
2023-07-26T03:51:37.234Z,0.40
2023-07-26T03:54:38.713Z,0.40
2023-07-26T03:57:40.210Z,0.40
2023-07-26T04:00:41.682Z,0.40
2023-07-26T04:03:43.234Z,0.40
2023-07-26T04:06:44.711Z,0.40
2023-07-26T04:09:46.198Z,0.43
2023-07-26T04:12:47.722Z,0.57
2023-07-26T04:15:49.257Z,0.50
2023-07-26T04:18:50.749Z,0.40
2023-07-26T04:21:52.239Z,0.35
2023-07-26T04:24:53.765Z,0.50
2023-07-26T04:27:55.224Z,0.50
2023-07-26T04:30:56.736Z,0.40
2023-07-26T04:33:58.257Z,0.80
2023-07-26T04:36:59.767Z,0.40
2023-07-26T04:40:01.204Z,0.60
2023-07-26T04:43:02.722Z,0.40
2023-07-26T04:46:04.200Z,0.43
2023-07-26T04:49:05.686Z,0.65
2023-07-26T04:52:07.209Z,0.47
2023-07-26T04:55:08.684Z,0.50
2023-07-26T04:58:10.163Z,0.40
2023-07-26T05:01:11.627Z,0.40
2023-07-26T05:04:13.176Z,0.30
2023-07-26T05:07:14.633Z,0.55
2023-07-26T05:10:16.088Z,0.63
2023-07-26T05:13:17.536Z,0.57
2023-07-26T05:16:19.065Z,0.60
2023-07-26T05:19:20.614Z,0.60
2023-07-26T05:22:22.158Z,0.40
2023-07-26T05:25:23.665Z,0.68
2023-07-26T05:28:25.159Z,0.70
2023-07-26T05:31:26.664Z,0.50
2023-07-26T05:34:28.096Z,0.60
2023-07-26T05:37:29.572Z,0.50
2023-07-26T05:40:31.053Z,0.40
2023-07-26T05:43:32.510Z,0.60
2023-07-26T05:46:34.005Z,0.43
2023-07-26T05:49:35.540Z,0.70
2023-07-26T05:52:37.015Z,0.50
2023-07-26T05:55:38.549Z,0.65
2023-07-26T05:58:40.054Z,0.70
2023-07-26T06:01:41.635Z,0.50
2023-07-26T06:04:43.138Z,0.50
2023-07-26T06:07:44.666Z,0.60
2023-07-26T06:10:46.143Z,0.65
2023-07-26T06:13:47.676Z,0.95
2023-07-26T06:16:49.197Z,0.80
2023-07-26T06:19:50.789Z,0.73
2023-07-26T06:22:52.237Z,0.67
2023-07-26T06:25:53.710Z,0.73
2023-07-26T06:28:55.162Z,0.80
2023-07-26T06:31:56.642Z,0.90
2023-07-26T06:34:58.182Z,1.00
2023-07-26T06:37:59.677Z,0.83
2023-07-26T06:41:01.145Z,0.80
2023-07-26T06:44:02.614Z,0.67
2023-07-26T06:47:04.063Z,0.80
2023-07-26T06:50:05.507Z,1.08
2023-07-26T06:53:07.196Z,0.90
2023-07-26T06:56:08.685Z,0.90
2023-07-26T06:59:10.184Z,0.80
2023-07-26T07:02:11.670Z,0.97
2023-07-26T07:05:13.156Z,1.13
2023-07-26T07:08:14.617Z,0.83
2023-07-26T07:11:16.118Z,0.77
2023-07-26T07:14:17.658Z,0.50
2023-07-26T07:17:19.100Z,0.90
2023-07-26T07:20:20.616Z,1.30
2023-07-26T07:23:22.079Z,0.70
2023-07-26T07:26:23.563Z,0.70
2023-07-26T07:29:25.037Z,0.70
2023-07-26T07:32:26.626Z,0.93
2023-07-26T07:35:28.146Z,0.90
2023-07-26T07:38:29.613Z,0.53
2023-07-26T07:41:31.344Z,1.10
2023-07-26T07:44:33.072Z,0.70
2023-07-26T07:47:34.604Z,0.70
2023-07-26T07:50:36.155Z,1.00
2023-07-26T07:53:37.679Z,1.05
2023-07-26T07:56:39.134Z,0.60
2023-07-26T07:59:40.606Z,0.70
2023-07-26T08:02:42.085Z,0.90
2023-07-26T08:05:43.639Z,1.10
2023-07-26T08:08:45.071Z,0.80
2023-07-26T08:11:46.552Z,0.93
2023-07-26T08:14:48.059Z,0.90
2023-07-26T08:17:49.582Z,1.07
2023-07-26T08:20:51.078Z,0.97
2023-07-26T08:23:52.648Z,0.80
2023-07-26T08:26:54.575Z,1.00
2023-07-26T08:29:56.078Z,0.70
2023-07-26T08:32:57.601Z,0.90
2023-07-26T08:35:59.082Z,1.00
2023-07-26T08:39:00.635Z,0.70
2023-07-26T08:42:02.136Z,1.05
2023-07-26T08:45:03.637Z,1.00
2023-07-26T08:48:05.086Z,0.93
2023-07-26T08:51:06.611Z,0.73
2023-07-26T08:54:08.113Z,0.70
2023-07-26T08:57:09.580Z,0.90
2023-07-26T09:00:11.052Z,1.00
2023-07-26T09:03:12.568Z,0.85
2023-07-26T09:06:14.578Z,0.87
2023-07-26T09:09:16.044Z,0.87
2023-07-26T09:12:17.511Z,1.15
2023-07-26T09:15:18.974Z,1.02
2023-07-26T09:18:20.979Z,0.90
2023-07-26T09:21:22.445Z,0.90
2023-07-26T09:24:24.009Z,1.20
2023-07-26T09:27:25.475Z,1.10
2023-07-26T09:30:26.922Z,1.30
2023-07-26T09:33:28.383Z,1.17
2023-07-26T09:36:29.839Z,0.93
2023-07-26T09:39:31.323Z,1.13
2023-07-26T09:42:32.789Z,1.40
2023-07-26T09:45:34.269Z,1.05
2023-07-26T09:51:40.788Z,1.10
2023-07-26T09:54:42.302Z,0.93
2023-07-26T09:57:44.140Z,1.40
2023-07-26T10:00:45.614Z,1.60
2023-07-26T10:03:47.093Z,1.10
2023-07-26T10:06:48.554Z,1.30
2023-07-26T10:09:50.026Z,1.30
2023-07-26T10:12:51.541Z,1.40
2023-07-26T10:15:53.894Z,1.20
2023-07-26T10:18:56.692Z,1.00
2023-07-26T10:21:58.281Z,1.33
2023-07-26T10:24:59.846Z,1.30
2023-07-26T10:28:01.406Z,1.10
2023-07-26T10:31:02.916Z,1.23
2023-07-26T10:34:05.065Z,1.17
2023-07-26T10:37:06.576Z,1.23
2023-07-26T10:40:10.973Z,1.33
2023-07-26T10:43:12.492Z,1.15
2023-07-26T10:46:14.043Z,1.10
2023-07-26T10:49:15.540Z,0.85
2023-07-26T10:52:17.035Z,0.90
2023-07-26T10:55:18.509Z,0.90
2023-07-26T10:58:20.037Z,0.98
2023-07-26T11:01:21.537Z,0.90
2023-07-26T11:04:23.053Z,0.77
2023-07-26T11:07:24.580Z,0.85
2023-07-26T11:10:26.090Z,0.90
2023-07-26T11:13:27.568Z,0.80
2023-07-26T11:16:29.055Z,0.90
2023-07-26T11:19:30.613Z,0.93
2023-07-26T11:22:32.091Z,0.93
2023-07-26T11:25:33.526Z,1.10
2023-07-26T11:28:35.014Z,0.80
2023-07-26T11:31:36.553Z,0.70
2023-07-26T11:34:38.040Z,0.87
2023-07-26T11:37:43.126Z,0.77
2023-07-26T11:40:44.647Z,0.80
2023-07-26T11:43:46.091Z,0.80
2023-07-26T11:46:47.611Z,0.52
2023-07-26T11:49:49.190Z,0.88
2023-07-26T11:52:50.651Z,0.68
2023-07-26T11:55:52.196Z,0.90
2023-07-26T11:58:53.775Z,0.90
2023-07-26T12:01:55.328Z,1.00
2023-07-26T12:04:56.926Z,1.02
2023-07-26T12:07:58.406Z,1.05
2023-07-26T12:11:01.886Z,1.35
2023-07-26T12:14:03.335Z,0.97
2023-07-26T12:17:04.822Z,1.10
2023-07-26T12:20:09.098Z,1.00
2023-07-26T12:23:13.207Z,1.35
2023-07-26T12:26:14.758Z,1.15
2023-07-26T12:29:16.382Z,1.00
2023-07-26T12:32:17.863Z,0.95
2023-07-26T12:35:19.328Z,0.80
2023-07-26T12:38:20.781Z,0.85
2023-07-26T12:41:22.207Z,1.00
2023-07-26T12:44:23.690Z,0.90
2023-07-26T12:47:30.256Z,0.97
2023-07-26T12:50:32.380Z,0.93
2023-07-26T12:53:33.907Z,1.05
2023-07-26T12:56:35.977Z,0.98
2023-07-26T12:59:37.794Z,1.23
2023-07-26T13:02:39.455Z,1.02
2023-07-26T13:05:41.142Z,0.98
2023-07-26T13:08:42.713Z,1.10
2023-07-26T13:11:44.130Z,1.02
2023-07-26T13:14:45.625Z,1.08
2023-07-26T13:17:47.116Z,1.10
2023-07-26T13:20:48.619Z,0.98
2023-07-26T13:23:50.057Z,1.15
2023-07-26T13:26:51.568Z,0.80
2023-07-26T13:29:52.989Z,0.83
2023-07-26T13:32:57.309Z,0.90
2023-07-26T13:35:59.166Z,1.00
2023-07-26T13:39:00.609Z,1.10
2023-07-26T13:42:02.103Z,1.30
2023-07-26T13:45:03.582Z,1.27
2023-07-26T13:48:05.094Z,1.00
2023-07-26T13:51:08.374Z,0.90
2023-07-26T13:54:11.457Z,0.90
2023-07-26T13:57:16.032Z,1.10
2023-07-26T14:00:17.477Z,1.20
2023-07-26T14:03:18.994Z,1.30
2023-07-26T14:06:20.477Z,0.73
2023-07-26T14:09:21.938Z,0.93
2023-07-26T14:12:23.398Z,0.87
2023-07-26T14:15:24.883Z,1.00
2023-07-26T14:18:26.322Z,0.68
2023-07-26T14:21:27.883Z,1.00
2023-07-26T14:24:29.347Z,0.85
2023-07-26T14:27:30.871Z,0.80
2023-07-26T14:30:32.359Z,0.90
2023-07-26T14:33:33.810Z,0.75
2023-07-26T14:36:35.515Z,1.10
2023-07-26T14:39:37.386Z,0.83
2023-07-26T14:42:38.855Z,0.90
2023-07-26T14:45:42.343Z,0.77
2023-07-26T14:48:45.582Z,1.00
2023-07-26T14:51:48.309Z,1.08
2023-07-26T14:54:52.220Z,1.08
2023-07-26T14:57:53.739Z,1.02
2023-07-26T15:00:55.228Z,1.05
2023-07-26T15:03:56.888Z,0.80
2023-07-26T15:06:58.528Z,1.20
2023-07-26T15:09:59.963Z,0.82
2023-07-26T15:13:01.400Z,1.00
2023-07-26T15:16:02.894Z,0.80
2023-07-26T15:19:04.354Z,1.33
2023-07-26T15:22:05.872Z,0.97
2023-07-26T15:25:07.350Z,0.87
2023-07-26T15:28:08.918Z,1.10
2023-07-26T15:31:10.464Z,0.77
2023-07-26T15:34:12.029Z,1.00
2023-07-26T15:37:13.569Z,1.00
2023-07-26T15:40:25.348Z,1.27
2023-07-26T15:43:27.246Z,1.25
2023-07-26T15:46:36.777Z,0.93
2023-07-26T15:52:47.279Z,0.90
2023-07-26T15:55:49.537Z,0.82
2023-07-26T15:58:52.207Z,0.80
2023-07-26T16:01:53.817Z,1.10
2023-07-26T16:11:04.118Z,0.90
2023-07-26T16:20:14.342Z,1.00
2023-07-26T16:23:15.810Z,1.13
2023-07-26T16:26:17.287Z,1.05
2023-07-26T16:29:18.761Z,1.00
2023-07-26T16:32:20.249Z,1.25
2023-07-26T16:35:21.730Z,0.80
2023-07-26T16:38:23.258Z,1.05
2023-07-26T16:41:24.746Z,1.10
2023-07-26T16:44:26.217Z,1.20
2023-07-26T16:47:27.698Z,1.00
2023-07-26T16:50:29.187Z,0.93
2023-07-26T16:53:30.629Z,1.10
2023-07-26T16:56:32.408Z,1.10
2023-07-26T16:59:34.409Z,1.00
2023-07-26T17:02:36.054Z,1.20
2023-07-26T17:05:37.618Z,0.97
2023-07-26T17:08:39.115Z,1.10
2023-07-26T17:11:40.600Z,1.10
2023-07-26T17:14:42.097Z,1.23
2023-07-26T17:17:43.637Z,1.15
2023-07-26T17:20:45.104Z,1.20
2023-07-26T17:23:46.544Z,1.10
2023-07-26T17:26:48.061Z,1.05
2023-07-26T17:29:49.553Z,1.15
2023-07-26T17:32:51.103Z,1.30
2023-07-26T17:35:52.663Z,1.08
2023-07-26T17:38:54.121Z,1.10
2023-07-26T17:41:55.610Z,1.17
2023-07-26T17:44:57.078Z,1.08
2023-07-26T17:47:58.620Z,1.40
2023-07-26T17:51:00.101Z,1.08
2023-07-26T17:54:01.568Z,1.35
2023-07-26T17:57:03.038Z,1.30
2023-07-26T18:00:04.531Z,1.30
2023-07-26T18:03:06.108Z,0.93
2023-07-26T18:06:07.636Z,1.23
2023-07-26T18:09:09.125Z,1.10
2023-07-26T18:12:10.564Z,1.17
2023-07-26T18:15:12.081Z,1.80
2023-07-26T18:18:13.553Z,2.70
2023-07-26T18:21:14.998Z,3.20
2023-07-26T18:24:16.466Z,2.27
2023-07-26T18:27:17.974Z,1.83
2023-07-26T18:30:19.648Z,1.80
2023-07-26T18:33:21.103Z,1.53
2023-07-26T18:36:22.543Z,1.73
2023-07-26T18:39:24.025Z,1.60
2023-07-26T18:42:25.495Z,1.83
2023-07-26T18:45:26.978Z,1.40
2023-07-26T18:48:28.472Z,1.27
2023-07-26T18:51:29.946Z,1.17
2023-07-26T18:54:31.609Z,1.13
2023-07-26T18:57:33.057Z,1.37
2023-07-26T19:00:34.678Z,1.37
2023-07-26T19:03:36.179Z,1.50
2023-07-26T19:06:37.643Z,0.97
2023-07-26T19:09:39.113Z,1.20
2023-07-26T19:12:40.566Z,1.07
2023-07-26T19:15:42.064Z,1.08
2023-07-26T19:18:43.624Z,1.00
2023-07-26T19:21:45.077Z,1.30
2023-07-26T19:24:46.685Z,1.30
2023-07-26T19:27:48.174Z,1.13
2023-07-26T19:30:49.725Z,1.03
2023-07-26T19:33:51.222Z,1.13
2023-07-26T19:36:52.694Z,1.00
2023-07-26T19:39:54.152Z,1.07
2023-07-26T19:42:55.659Z,1.17
2023-07-26T19:45:57.147Z,1.27
2023-07-26T19:48:58.889Z,1.23
2023-07-26T19:52:05.338Z,1.00
2023-07-26T19:55:06.838Z,0.90
2023-07-26T19:58:08.393Z,1.30
2023-07-26T20:01:09.922Z,0.90
2023-07-26T20:04:11.480Z,1.00
2023-07-26T20:07:13.224Z,0.93
2023-07-26T20:10:14.724Z,0.90
2023-07-26T20:13:16.393Z,1.13
2023-07-26T20:16:18.216Z,0.80
2023-07-26T20:19:19.973Z,1.10
2023-07-26T20:22:24.290Z,1.07
2023-07-26T20:25:25.880Z,0.95
2023-07-26T20:28:27.560Z,1.10
2023-07-26T20:31:29.211Z,1.00
2023-07-26T20:34:30.703Z,1.02
2023-07-26T20:37:32.172Z,0.83
2023-07-26T20:40:33.624Z,1.30
2023-07-26T20:43:35.089Z,0.90
2023-07-26T20:46:36.789Z,0.90
2023-07-26T20:49:38.365Z,0.90
2023-07-26T20:52:39.844Z,1.13
2023-07-26T20:55:41.284Z,1.00
2023-07-26T20:58:42.754Z,1.20
2023-07-26T21:01:44.243Z,1.20
2023-07-26T21:04:45.760Z,1.10
2023-07-26T21:07:47.202Z,1.10
2023-07-26T21:10:48.690Z,1.00
2023-07-26T21:13:50.161Z,1.10
2023-07-26T21:16:51.633Z,1.20
2023-07-26T21:19:53.206Z,0.90
2023-07-26T21:22:54.672Z,1.13
2023-07-26T21:25:56.172Z,1.00
2023-07-26T21:28:57.670Z,1.10
2023-07-26T21:31:59.190Z,1.25
2023-07-26T21:35:00.687Z,0.80
2023-07-26T21:38:02.166Z,1.20
2023-07-26T21:41:03.614Z,1.00
2023-07-26T21:44:05.080Z,0.82
2023-07-26T21:47:06.538Z,1.00
2023-07-26T21:50:08.037Z,1.00
2023-07-26T21:53:09.509Z,1.02
2023-07-26T21:56:10.962Z,1.30
2023-07-26T21:59:12.455Z,1.00
2023-07-26T22:02:13.970Z,1.20
2023-07-26T22:05:15.446Z,0.98
2023-07-26T22:08:16.932Z,1.00
2023-07-26T22:11:18.424Z,0.90
2023-07-26T22:14:19.866Z,0.70
2023-07-26T22:17:21.341Z,0.90
2023-07-26T22:20:22.806Z,1.10
2023-07-26T22:23:24.290Z,1.30
2023-07-26T22:26:25.738Z,0.80
2023-07-26T22:29:27.200Z,1.05
2023-07-26T22:32:28.714Z,0.93
2023-07-26T22:35:30.188Z,1.00
2023-07-26T22:38:31.743Z,0.90
2023-07-26T22:41:33.459Z,1.00
2023-07-26T22:44:35.048Z,1.20
2023-07-26T22:47:36.556Z,0.80
2023-07-26T22:50:39.138Z,0.93
2023-07-26T22:53:41.681Z,0.90
2023-07-26T22:56:43.175Z,1.05
2023-07-26T22:59:44.651Z,1.10
2023-07-26T23:02:46.139Z,1.05
2023-07-26T23:05:47.626Z,0.80
2023-07-26T23:08:49.067Z,0.93
2023-07-26T23:11:50.498Z,1.00
2023-07-26T23:14:52.055Z,1.00
2023-07-26T23:17:53.556Z,1.00
2023-07-26T23:20:55.064Z,1.45
2023-07-26T23:23:56.538Z,1.10
2023-07-26T23:26:58.019Z,1.10
2023-07-26T23:29:59.598Z,0.90
2023-07-26T23:33:01.112Z,1.00
2023-07-26T23:36:02.648Z,0.90
2023-07-26T23:39:04.126Z,1.20
2023-07-26T23:42:05.677Z,0.80
2023-07-26T23:45:07.146Z,1.10
2023-07-26T23:48:08.607Z,0.70
2023-07-26T23:51:10.057Z,0.90
2023-07-26T23:54:11.514Z,1.13
2023-07-26T23:57:15.656Z,0.90
